Prairie Lake, Minnesota
Current Conditions -  °F | °C
As of 7:37 AM on Saturday 01 Nov 2014 (Local Time) from KCOQ Reporting Station
Clear Clear  
Wind Chill: 21°   Ceiling: Unl
Heat Index: 21°   Visibility: 10mi
Dew Point: 16°   Wind: 0mph
Humidity: 80%   Direction: NA
Pressure: 30.4"   Gusts: NA
Location:  46.9584°N, 92.9445°W
Report Text: KCOQ 011237Z AUTO 00000KT 10SM CLR M06/M09 A3040 RMK AO2
Loading
Personal Weather Stations






























Interactive Weather Map
Tropical Storm Tracking
New forecast layout! Learn more

10-Day Weather Forecast

Advertisements
Track Severe Weather on mobile